createdAt,value
2023-04-16T00:02:34.322Z,100159.63
2023-04-16T00:05:22.523Z,100161.27
2023-04-16T00:08:32.547Z,100161.67
2023-04-16T00:11:16.372Z,100164.04
2023-04-16T00:17:19.392Z,100172.27
2023-04-16T00:20:22.562Z,100174.23
2023-04-16T00:23:51.732Z,100171.41
2023-04-16T00:26:51.846Z,100174.61
2023-04-16T00:29:36.149Z,100178.32
2023-04-16T00:32:40.897Z,100178.08
2023-04-16T00:35:45.644Z,100175.16
2023-04-16T00:38:56.188Z,100171.14
2023-04-16T00:41:51.517Z,100175.38
2023-04-16T00:44:41.251Z,100181.63
2023-04-16T00:47:41.431Z,100185.24
2023-04-16T00:50:50.461Z,100186.08
2023-04-16T00:53:37.711Z,100188.56
2023-04-16T00:56:36.825Z,100189.96
2023-04-16T00:59:27.646Z,100191.95
2023-04-16T01:02:38.284Z,100195.98
2023-04-16T01:05:18.039Z,100192.96
2023-04-16T01:08:22.423Z,100195.98
2023-04-16T01:11:03.128Z,100192.83
2023-04-16T01:14:25.307Z,100193.11
2023-04-16T01:17:22.956Z,100196.98
2023-04-16T01:20:53.740Z,100199.13
2023-04-16T01:23:45.519Z,100197.77
2023-04-16T01:26:25.169Z,100198.20
2023-04-16T01:29:24.641Z,100198.99
2023-04-16T01:32:34.920Z,100195.96
2023-04-16T01:36:00.884Z,100196.83
2023-04-16T01:38:42.124Z,100200.35
2023-04-16T01:41:23.162Z,100202.33
2023-04-16T01:44:11.559Z,100199.95
2023-04-16T01:46:59.359Z,100199.36
2023-04-16T01:49:51.998Z,100199.58
2023-04-16T01:52:46.718Z,100197.44
2023-04-16T01:55:31.014Z,100200.61
2023-04-16T01:58:17.230Z,100206.56
2023-04-16T02:00:57.932Z,100211.29
2023-04-16T02:03:43.052Z,100214.45
2023-04-16T02:06:43.402Z,100212.70
2023-04-16T02:10:00.938Z,100211.49
2023-04-16T02:13:02.852Z,100212.04
2023-04-16T02:16:21.879Z,100213.02
2023-04-16T02:19:04.373Z,100215.66
2023-04-16T02:21:49.461Z,100214.65
2023-04-16T02:24:38.538Z,100215.97
2023-04-16T02:27:33.765Z,100221.80
2023-04-16T02:30:23.096Z,100223.48
2023-04-16T02:33:07.921Z,100225.25
2023-04-16T02:36:14.508Z,100224.30
2023-04-16T02:38:57.331Z,100223.13
2023-04-16T02:41:39.894Z,100224.75
2023-04-16T02:44:23.271Z,100223.63
2023-04-16T02:47:09.103Z,100228.80
2023-04-16T02:50:03.956Z,100228.22
2023-04-16T02:52:47.381Z,100231.16
2023-04-16T02:55:31.474Z,100231.91
2023-04-16T02:58:27.449Z,100231.89
2023-04-16T03:01:07.882Z,100230.95
2023-04-16T03:03:53.301Z,100226.20
2023-04-16T03:06:29.386Z,100225.84
2023-04-16T03:09:21.839Z,100230.38
2023-04-16T03:12:19.722Z,100231.60
2023-04-16T03:15:04.176Z,100231.79
2023-04-16T03:17:50.849Z,100233.36
2023-04-16T03:20:47.207Z,100229.55
2023-04-16T03:23:39.404Z,100238.65
2023-04-16T03:26:32.617Z,100244.58
2023-04-16T03:29:31.567Z,100247.08
2023-04-16T03:32:11.437Z,100252.41
2023-04-16T03:35:03.994Z,100257.13
2023-04-16T03:37:42.426Z,100262.88
2023-04-16T03:40:22.241Z,100265.35
2023-04-16T03:43:06.051Z,100268.56
2023-04-16T03:46:01.711Z,100269.00
2023-04-16T03:52:19.620Z,100274.41
2023-04-16T03:55:09.830Z,100277.91
2023-04-16T03:58:21.104Z,100279.63
2023-04-16T04:01:27.716Z,100278.38
2023-04-16T04:04:17.818Z,100278.84
2023-04-16T04:07:24.711Z,100281.55
2023-04-16T04:10:07.101Z,100280.91
2023-04-16T04:12:50.676Z,100283.66
2023-04-16T04:15:54.178Z,100290.42
2023-04-16T04:18:38.926Z,100298.64
2023-04-16T04:21:20.723Z,100309.94
2023-04-16T04:24:00.585Z,100313.64
2023-04-16T04:26:38.186Z,100316.63
2023-04-16T04:30:04.366Z,100318.14
2023-04-16T04:33:03.263Z,100320.05
2023-04-16T04:36:05.182Z,100322.65
2023-04-16T04:39:03.352Z,100328.05
2023-04-16T04:42:10.395Z,100326.48
2023-04-16T04:45:03.962Z,100322.91
2023-04-16T04:47:50.289Z,100324.67
2023-04-16T04:50:45.544Z,100326.86
2023-04-16T04:53:38.644Z,100328.45
2023-04-16T04:56:52.831Z,100331.71
2023-04-16T04:59:53.273Z,100335.11
2023-04-16T05:02:39.249Z,100337.20
2023-04-16T05:05:37.280Z,100338.23
2023-04-16T05:08:20.668Z,100340.69
2023-04-16T05:11:17.778Z,100343.33
2023-04-16T05:14:00.694Z,100346.98
2023-04-16T05:17:02.299Z,100352.27
2023-04-16T05:20:19.988Z,100358.94
2023-04-16T05:23:38.054Z,100365.56
2023-04-16T05:26:20.374Z,100368.92
2023-04-16T05:29:20.147Z,100370.70
2023-04-16T05:32:19.983Z,100373.30
2023-04-16T05:35:30.763Z,100374.96
2023-04-16T05:38:30.785Z,100375.73
2023-04-16T05:44:00.540Z,100381.62
2023-04-16T05:47:11.127Z,100380.20
2023-04-16T05:49:58.076Z,100381.27
2023-04-16T05:52:56.066Z,100384.67
2023-04-16T05:55:42.541Z,100387.86
2023-04-16T05:58:22.968Z,100387.79
2023-04-16T06:00:57.456Z,100386.96
2023-04-16T06:03:31.107Z,100387.61
2023-04-16T06:06:10.548Z,100392.20
2023-04-16T06:08:49.924Z,100395.77
2023-04-16T06:11:23.583Z,100397.49
2023-04-16T06:13:56.709Z,100400.77
2023-04-16T06:16:35.328Z,100405.05
2023-04-16T06:19:13.918Z,100406.61
2023-04-16T06:21:57.088Z,100407.66
2023-04-16T06:24:39.351Z,100412.49
2023-04-16T06:27:22.467Z,100421.88
2023-04-16T06:30:01.065Z,100427.88
2023-04-16T06:32:46.464Z,100428.44
2023-04-16T06:35:24.180Z,100434.35
2023-04-16T06:38:06.921Z,100437.58
2023-04-16T06:41:04.151Z,100434.45
2023-04-16T06:43:47.466Z,100435.84
2023-04-16T06:46:34.976Z,100437.67
2023-04-16T06:49:18.843Z,100436.65
2023-04-16T06:51:58.382Z,100436.43
2023-04-16T06:55:10.901Z,100438.61
2023-04-16T06:58:09.690Z,100437.67
2023-04-16T07:01:14.399Z,100441.77
2023-04-16T07:04:57.411Z,100446.17
2023-04-16T07:07:39.466Z,100447.82
2023-04-16T07:10:25.686Z,100442.48
2023-04-16T07:13:04.234Z,100446.06
2023-04-16T07:16:27.693Z,100450.88
2023-04-16T07:19:10.681Z,100453.66
2023-04-16T07:21:45.288Z,100453.35
2023-04-16T07:24:23.693Z,100453.05
2023-04-16T07:27:08.867Z,100451.83
2023-04-16T07:30:05.792Z,100452.08
2023-04-16T07:32:58.942Z,100449.49
2023-04-16T07:35:51.330Z,100450.54
2023-04-16T07:38:49.312Z,100454.96
2023-04-16T07:41:59.086Z,100457.86
2023-04-16T07:44:34.884Z,100461.23
2023-04-16T07:47:10.947Z,100462.09
2023-04-16T07:50:31.671Z,100465.42
2023-04-16T07:53:33.113Z,100464.54
2023-04-16T07:56:18.502Z,100465.67
2023-04-16T07:59:22.113Z,100465.80
2023-04-16T08:02:24.357Z,100471.42
2023-04-16T08:05:20.730Z,100470.09
2023-04-16T08:11:32.036Z,100468.11
2023-04-16T08:14:34.126Z,100470.08
2023-04-16T08:17:38.233Z,100474.62
2023-04-16T08:20:28.572Z,100475.98
2023-04-16T08:23:09.032Z,100479.55
2023-04-16T08:25:48.184Z,100486.63
2023-04-16T08:28:25.556Z,100490.32
2023-04-16T08:30:56.223Z,100490.27
2023-04-16T08:33:27.466Z,100492.51
2023-04-16T08:36:05.034Z,100501.42
2023-04-16T08:39:02.444Z,100504.80
2023-04-16T08:41:53.550Z,100509.56
2023-04-16T08:44:53.066Z,100512.73
2023-04-16T08:47:31.905Z,100514.05
2023-04-16T08:50:19.755Z,100512.60
2023-04-16T08:53:24.759Z,100518.90
2023-04-16T08:56:09.028Z,100520.23
2023-04-16T08:58:46.889Z,100522.95
2023-04-16T09:01:45.358Z,100523.74
2023-04-16T09:04:42.482Z,100525.98
2023-04-16T09:07:31.898Z,100525.90
2023-04-16T09:10:15.347Z,100531.05
2023-04-16T09:13:09.812Z,100537.36
2023-04-16T09:15:49.508Z,100538.09
2023-04-16T09:18:34.542Z,100540.06
2023-04-16T09:21:08.145Z,100540.10
2023-04-16T09:23:41.658Z,100541.18
2023-04-16T09:26:17.514Z,100541.94
2023-04-16T09:29:02.853Z,100546.59
2023-04-16T09:31:48.042Z,100551.17
2023-04-16T09:35:00.203Z,100554.14
2023-04-16T09:37:51.920Z,100558.86
2023-04-16T09:40:31.421Z,100558.69
2023-04-16T09:43:20.236Z,100556.25
2023-04-16T09:46:14.250Z,100559.73
2023-04-16T09:48:49.448Z,100556.80
2023-04-16T09:51:28.634Z,100565.84
2023-04-16T09:54:17.768Z,100565.14
2023-04-16T09:57:01.998Z,100567.73
2023-04-16T10:00:06.744Z,100569.56
2023-04-16T10:03:44.220Z,100569.00
2023-04-16T10:07:29.895Z,100575.77
2023-04-16T10:10:31.274Z,100579.11
2023-04-16T10:13:19.510Z,100579.44
2023-04-16T10:16:37.905Z,100584.58
2023-04-16T10:19:31.653Z,100585.38
2023-04-16T10:22:41.347Z,100586.36
2023-04-16T10:25:45.813Z,100588.29
2023-04-16T10:28:47.117Z,100586.31
2023-04-16T10:31:54.414Z,100586.02
2023-04-16T10:34:50.921Z,100586.06
2023-04-16T10:37:50.082Z,100589.16
2023-04-16T10:40:42.724Z,100587.41
2023-04-16T10:43:51.671Z,100587.67
2023-04-16T10:46:57.693Z,100587.90
2023-04-16T10:49:52.186Z,100587.86
2023-04-16T10:52:34.021Z,100586.80
2023-04-16T10:55:36.043Z,100587.88
2023-04-16T10:58:39.245Z,100585.63
2023-04-16T11:01:20.336Z,100583.27
2023-04-16T11:04:25.380Z,100579.84
2023-04-16T11:07:59.678Z,100581.19
2023-04-16T11:10:57.364Z,100585.48
2023-04-16T11:13:32.200Z,100588.91
2023-04-16T11:16:12.544Z,100590.80
2023-04-16T11:19:06.313Z,100589.75
2023-04-16T11:25:46.287Z,100589.90
2023-04-16T11:31:55.696Z,100589.91
2023-04-16T11:34:30.779Z,100589.47
2023-04-16T11:38:28.143Z,100589.06
2023-04-16T11:46:27.969Z,100591.80
2023-04-16T11:49:40.014Z,100588.27
2023-04-16T11:52:14.663Z,100591.30
2023-04-16T11:54:51.532Z,100590.72
2023-04-16T11:57:39.070Z,100592.38
2023-04-16T12:00:17.213Z,100590.42
2023-04-16T12:03:06.462Z,100591.41
2023-04-16T12:06:19.875Z,100587.73
2023-04-16T12:09:37.896Z,100589.67
2023-04-16T12:12:45.217Z,100590.40
2023-04-16T12:15:29.728Z,100594.73
2023-04-16T12:18:23.377Z,100592.83
2023-04-16T12:24:29.264Z,100584.84
2023-04-16T12:27:31.140Z,100584.71
2023-04-16T12:30:29.991Z,100581.45
2023-04-16T12:33:33.977Z,100582.73
2023-04-16T12:36:29.028Z,100584.04
2023-04-16T12:39:29.309Z,100581.96
2023-04-16T12:42:22.908Z,100582.42
2023-04-16T12:45:12.373Z,100580.02
2023-04-16T12:48:01.171Z,100575.65
2023-04-16T12:50:46.625Z,100578.27
2023-04-16T12:56:50.737Z,100582.32
2023-04-16T13:00:11.351Z,100580.50
2023-04-16T13:03:05.237Z,100575.90
2023-04-16T13:06:23.496Z,100577.75
2023-04-16T13:09:33.391Z,100578.27
2023-04-16T13:12:31.782Z,100582.11
2023-04-16T13:15:45.958Z,100581.58
2023-04-16T13:18:35.514Z,100577.52
2023-04-16T13:21:30.978Z,100576.46
2023-04-16T13:24:13.261Z,100581.52
2023-04-16T13:27:16.718Z,100579.55
2023-04-16T13:33:38.009Z,100577.20
2023-04-16T13:36:19.850Z,100568.84
2023-04-16T13:39:24.336Z,100569.92
2023-04-16T13:45:08.519Z,100576.46
2023-04-16T13:48:10.928Z,100571.00
2023-04-16T13:50:46.339Z,100569.50
2023-04-16T13:53:51.701Z,100570.88
2023-04-16T13:56:31.507Z,100571.49
2023-04-16T13:59:47.409Z,100573.90
2023-04-16T14:03:33.989Z,100569.77
2023-04-16T14:06:26.585Z,100573.47
2023-04-16T14:09:34.436Z,100575.36
2023-04-16T14:12:33.692Z,100573.06
2023-04-16T14:15:30.264Z,100574.26
2023-04-16T14:18:14.236Z,100570.44
2023-04-16T14:21:03.486Z,100570.89
2023-04-16T14:24:00.249Z,100568.89
2023-04-16T14:26:55.060Z,100566.70
2023-04-16T14:31:00.141Z,100566.06
2023-04-16T14:34:11.233Z,100567.12
2023-04-16T14:37:15.283Z,100567.13
2023-04-16T14:40:44.713Z,100570.35
2023-04-16T14:43:43.317Z,100568.15
2023-04-16T14:46:48.224Z,100568.02
2023-04-16T14:49:51.879Z,100568.85
2023-04-16T14:53:08.624Z,100571.60
2023-04-16T14:56:16.482Z,100573.43
2023-04-16T14:59:38.876Z,100579.70
2023-04-16T15:06:13.853Z,100582.52
2023-04-16T15:09:10.608Z,100579.91
2023-04-16T15:12:19.137Z,100583.54
2023-04-16T15:15:24.389Z,100585.64
2023-04-16T15:18:23.134Z,100585.48
2023-04-16T15:21:13.564Z,100586.24
2023-04-16T15:25:24.618Z,100591.75
2023-04-16T15:28:28.219Z,100594.21
2023-04-16T15:31:14.707Z,100592.00
2023-04-16T15:34:49.663Z,100591.34
2023-04-16T15:47:59.675Z,100598.61
2023-04-16T15:52:26.158Z,100599.39
2023-04-16T15:55:30.857Z,100600.00
2023-04-16T15:58:19.842Z,100600.86
2023-04-16T16:01:02.837Z,100605.08
2023-04-16T16:03:50.884Z,100604.77
2023-04-16T16:06:33.010Z,100602.75
2023-04-16T16:09:30.546Z,100607.11
2023-04-16T16:12:09.176Z,100611.60
2023-04-16T16:15:12.468Z,100613.19
2023-04-16T16:17:48.211Z,100617.39
2023-04-16T16:20:36.428Z,100623.34
2023-04-16T16:23:07.778Z,100631.66
2023-04-16T16:26:07.179Z,100639.40
2023-04-16T16:28:49.280Z,100637.86
2023-04-16T16:31:42.701Z,100636.39
2023-04-16T16:34:21.300Z,100635.13
2023-04-16T16:37:15.986Z,100631.95
2023-04-16T16:39:52.831Z,100638.46
2023-04-16T16:43:07.771Z,100636.98
2023-04-16T16:45:47.153Z,100642.95
2023-04-16T16:48:18.307Z,100641.66
2023-04-16T16:50:49.426Z,100641.27
2023-04-16T16:53:22.827Z,100641.14
2023-04-16T16:56:11.964Z,100642.48
2023-04-16T16:58:48.526Z,100643.59
2023-04-16T17:01:32.721Z,100640.77
2023-04-16T17:04:41.964Z,100641.88
2023-04-16T17:10:29.154Z,100646.14
2023-04-16T17:13:44.348Z,100646.73
2023-04-16T17:19:56.358Z,100660.88
2023-04-16T17:23:00.891Z,100665.84
2023-04-16T17:30:17.860Z,100672.70
2023-04-16T17:33:45.276Z,100679.36
2023-04-16T17:36:52.196Z,100682.83
2023-04-16T17:39:44.083Z,100689.80
2023-04-16T17:42:53.740Z,100693.35
2023-04-16T17:46:13.923Z,100692.09
2023-04-16T17:49:13.506Z,100696.90
2023-04-16T17:52:06.577Z,100701.77
2023-04-16T17:54:56.026Z,100705.44
2023-04-16T17:57:41.200Z,100708.87
2023-04-16T18:00:43.114Z,100713.76
2023-04-16T18:03:28.745Z,100717.56
2023-04-16T18:06:10.492Z,100725.10
2023-04-16T18:09:18.727Z,100729.11
2023-04-16T18:12:09.922Z,100729.75
2023-04-16T18:15:14.165Z,100734.48
2023-04-16T18:18:17.694Z,100738.29
2023-04-16T18:21:18.159Z,100742.25
2023-04-16T18:24:18.223Z,100743.84
2023-04-16T18:27:12.674Z,100746.70
2023-04-16T18:30:40.492Z,100745.27
2023-04-16T18:36:33.426Z,100762.06
2023-04-16T18:39:32.292Z,100766.58
2023-04-16T18:42:23.216Z,100768.69
2023-04-16T18:45:50.989Z,100771.71
2023-04-16T18:49:07.829Z,100770.34
2023-04-16T18:52:02.250Z,100774.45
2023-04-16T18:54:45.121Z,100775.27
2023-04-16T19:03:57.484Z,100781.38
2023-04-16T19:07:04.670Z,100779.05
2023-04-16T19:09:48.798Z,100781.34
2023-04-16T19:12:32.049Z,100783.89
2023-04-16T19:15:22.003Z,100787.60
2023-04-16T19:18:29.396Z,100791.91
2023-04-16T19:22:09.731Z,100794.15
2023-04-16T19:25:24.435Z,100799.73
2023-04-16T19:28:19.862Z,100802.05
2023-04-16T19:31:18.801Z,100803.43
2023-04-16T19:37:32.554Z,100802.39
2023-04-16T19:40:49.942Z,100801.46
2023-04-16T19:43:49.769Z,100802.00
2023-04-16T19:47:04.300Z,100800.94
2023-04-16T19:49:54.679Z,100801.02
2023-04-16T19:52:47.255Z,100801.84
2023-04-16T19:56:01.169Z,100803.27
2023-04-16T19:59:01.990Z,100802.65
2023-04-16T20:01:52.868Z,100803.30
2023-04-16T20:04:51.898Z,100806.98
2023-04-16T20:14:19.432Z,100808.46
2023-04-16T20:17:24.207Z,100809.09
2023-04-16T20:20:20.737Z,100808.77
2023-04-16T20:23:11.844Z,100808.09
2023-04-16T20:25:49.951Z,100810.66
2023-04-16T20:28:43.319Z,100809.10
2023-04-16T20:31:23.130Z,100805.45
2023-04-16T20:34:04.340Z,100805.17
2023-04-16T20:36:47.448Z,100801.45
2023-04-16T20:39:44.923Z,100801.13
2023-04-16T20:46:42.184Z,100805.41
2023-04-16T20:49:53.219Z,100811.79
2023-04-16T20:53:30.689Z,100810.36
2023-04-16T21:00:03.523Z,100812.30
2023-04-16T21:03:23.943Z,100816.88
2023-04-16T21:06:07.518Z,100815.91
2023-04-16T21:12:34.126Z,100820.95
2023-04-16T21:15:24.712Z,100819.40
2023-04-16T21:18:47.122Z,100822.38
2023-04-16T21:22:33.754Z,100828.11
2023-04-16T21:25:44.090Z,100825.38
2023-04-16T21:28:42.946Z,100830.27
2023-04-16T21:31:43.720Z,100827.67
2023-04-16T21:35:15.583Z,100830.67
2023-04-16T21:38:20.315Z,100833.91
2023-04-16T21:41:14.839Z,100832.46
2023-04-16T21:44:02.747Z,100831.70
2023-04-16T21:47:27.868Z,100830.79
2023-04-16T21:50:31.132Z,100831.11
2023-04-16T21:53:35.658Z,100832.45
2023-04-16T21:57:01.597Z,100830.92
2023-04-16T22:00:34.965Z,100834.35
2023-04-16T22:03:51.433Z,100833.36
2023-04-16T22:07:06.726Z,100835.36
2023-04-16T22:10:46.897Z,100836.89
2023-04-16T22:13:52.407Z,100830.78
2023-04-16T22:16:38.103Z,100825.64
2023-04-16T22:19:42.326Z,100823.98
2023-04-16T22:23:11.369Z,100820.97
2023-04-16T22:26:27.679Z,100822.70
2023-04-16T22:29:35.488Z,100820.83
2023-04-16T22:32:17.512Z,100821.38
2023-04-16T22:35:06.389Z,100822.09
2023-04-16T22:38:06.120Z,100819.55
2023-04-16T22:41:38.477Z,100821.02
2023-04-16T22:45:09.645Z,100822.52
2023-04-16T22:48:27.478Z,100822.64
2023-04-16T22:51:35.118Z,100818.73
2023-04-16T22:54:48.284Z,100820.04
2023-04-16T22:58:14.469Z,100821.12
2023-04-16T23:05:19.500Z,100820.05
2023-04-16T23:08:43.173Z,100819.90
2023-04-16T23:11:58.779Z,100822.02
2023-04-16T23:15:17.135Z,100822.80
2023-04-16T23:18:22.442Z,100822.16
2023-04-16T23:21:43.209Z,100823.39
2023-04-16T23:28:13.301Z,100820.77
2023-04-16T23:31:21.598Z,100820.61
2023-04-16T23:34:02.560Z,100820.61
2023-04-16T23:56:20.493Z,100824.08
